Time;durP1;ratioP1;P1;durP2;ratioP2;P2;SDS_P1;SDS_P2;PMS_P1;PMS_P2;Temp;Humidity;BMP_temperature;BMP_pressure;BME280_temperature;BME280_humidity;BME280_pressure;Samples;Min_cycle;Max_cycle;Signal;HPM_P1;HPM_P2
2023/07/10 00:01:45;;;;;;;3.30;1.75;;;27.90;43.20;;;;;;2526432;54;20908;-69
2023/07/10 00:04:17;;;;;;;5.18;2.00;;;27.90;43.40;;;;;;2292549;55;21879;-69
2023/07/10 00:06:43;;;;;;;3.25;1.65;;;27.90;43.80;;;;;;2273324;55;22204;-70
2023/07/10 00:09:10;;;;;;;3.55;1.55;;;27.80;43.70;;;;;;2292502;55;20916;-69
2023/07/10 00:11:36;;;;;;;3.70;1.85;;;27.80;43.70;;;;;;2292128;55;20908;-70
2023/07/10 00:14:26;;;;;;;3.53;1.73;;;27.80;43.80;;;;;;2527993;54;21673;-70
2023/07/10 00:16:53;;;;;;;3.97;1.80;;;27.80;44.00;;;;;;2287271;55;21455;-69
2023/07/10 00:19:19;;;;;;;3.60;1.73;;;27.70;44.10;;;;;;2292793;55;20932;-71
2023/07/10 00:21:53;;;;;;;5.62;1.92;;;27.70;44.20;;;;;;2527406;54;20964;-69
2023/07/10 00:24:19;;;;;;;2.95;1.55;;;27.70;44.50;;;;;;2528299;54;20988;-70
2023/07/10 00:26:45;;;;;;;6.72;2.55;;;27.70;44.50;;;;;;2527624;54;20988;-67
2023/07/10 00:29:24;;;;;;;4.00;1.98;;;27.70;44.60;;;;;;2528059;54;20896;-69
2023/07/10 00:31:51;;;;;;;4.70;2.05;;;27.70;45.10;;;;;;2527644;54;20961;-70
2023/07/10 00:34:17;;;;;;;2.60;1.48;;;27.70;44.80;;;;;;2292347;55;21739;-70
2023/07/10 00:36:48;;;;;;;3.85;1.80;;;27.70;44.90;;;;;;2526867;54;20956;-69
2023/07/10 00:39:36;;;;;;;3.20;1.80;;;27.70;45.10;;;;;;2526316;54;21035;-69
2023/07/10 00:42:14;;;;;;;4.65;2.00;;;27.70;45.30;;;;;;2292073;56;20972;-68
2023/07/10 00:44:53;;;;;;;3.03;1.60;;;27.70;45.30;;;;;;2292533;55;21507;-68
2023/07/10 00:47:26;;;;;;;3.05;1.50;;;27.80;45.50;;;;;;2527270;54;20924;-69
2023/07/10 00:49:57;;;;;;;4.18;1.90;;;27.80;45.30;;;;;;2291774;55;20959;-72
2023/07/10 00:52:25;;;;;;;3.65;1.83;;;27.80;45.40;;;;;;2514284;54;21866;-69
2023/07/10 00:54:53;;;;;;;3.10;1.60;;;27.80;45.40;;;;;;2282291;55;20907;-71
2023/07/10 00:57:33;;;;;;;4.07;2.03;;;27.80;45.40;;;;;;2292808;55;20992;-69
2023/07/10 01:00:00;;;;;;;4.30;1.65;;;27.90;45.50;;;;;;2525085;54;21836;-71
2023/07/10 01:02:26;;;;;;;3.45;1.87;;;27.90;45.50;;;;;;2278555;55;20992;-68
2023/07/10 01:05:00;;;;;;;5.30;1.67;;;27.90;45.50;;;;;;2509826;54;21052;-70
2023/07/10 01:07:27;;;;;;;4.32;1.75;;;27.90;45.90;;;;;;2271724;55;21833;-67
2023/07/10 01:09:59;;;;;;;3.15;1.92;;;27.90;45.60;;;;;;2291684;55;20980;-69
2023/07/10 01:12:26;;;;;;;4.68;2.00;;;27.90;45.80;;;;;;2528303;54;20901;-69
2023/07/10 01:14:52;;;;;;;3.28;1.90;;;27.90;45.70;;;;;;2291449;55;21370;-70
2023/07/10 01:17:19;;;;;;;5.78;2.28;;;27.90;45.80;;;;;;2293015;55;20956;-70
2023/07/10 01:19:47;;;;;;;5.18;2.22;;;27.90;45.90;;;;;;2502349;54;21030;-69
2023/07/10 01:22:14;;;;;;;3.58;1.92;;;28.00;46.10;;;;;;2527408;54;20952;-70
2023/07/10 01:24:43;;;;;;;3.65;1.87;;;28.00;46.10;;;;;;2273121;55;21922;-72
2023/07/10 01:27:12;;;;;;;3.92;2.08;;;28.00;46.20;;;;;;2292573;55;21477;-69
2023/07/10 01:29:44;;;;;;;3.72;1.73;;;28.00;46.20;;;;;;2274985;55;20965;-69
2023/07/10 01:32:12;;;;;;;;;;;28.00;46.20;;;;;;2294154;55;20920;-69
2023/07/10 01:34:50;;;;;;;2.60;1.40;;;28.00;46.20;;;;;;2527271;54;20064;-69
2023/07/10 01:37:16;;;;;;;3.20;1.60;;;28.00;46.10;;;;;;2523101;54;21031;-70
2023/07/10 01:39:45;;;;;;;3.05;1.42;;;28.00;46.30;;;;;;2273622;55;21393;-69
2023/07/10 01:42:14;;;;;;;3.25;1.55;;;28.00;46.50;;;;;;2527419;54;21000;-71
2023/07/10 01:44:42;;;;;;;3.90;1.70;;;28.00;46.70;;;;;;2527088;54;20937;-69
2023/07/10 01:47:29;;;;;;;3.28;1.80;;;28.00;46.60;;;;;;2290695;55;20933;-69
2023/07/10 01:49:59;;;;;;;2.95;1.60;;;28.00;47.10;;;;;;2288898;55;20948;-69
2023/07/10 01:52:25;;;;;;;5.68;1.83;;;28.00;46.70;;;;;;2292231;55;21747;-69
2023/07/10 01:54:52;;;;;;;3.10;1.65;;;28.00;46.70;;;;;;2285420;55;21005;-69
2023/07/10 01:57:23;;;;;;;4.20;1.83;;;28.00;46.80;;;;;;2269641;55;21098;-69
2023/07/10 01:59:50;;;;;;;4.57;2.10;;;28.10;47.10;;;;;;2285605;55;20984;-70
2023/07/10 02:02:16;;;;;;;3.25;1.62;;;28.10;47.10;;;;;;2292307;55;20953;-68
2023/07/10 02:04:43;;;;;;;4.00;1.77;;;28.10;47.10;;;;;;2292320;55;20960;-68
2023/07/10 02:07:10;;;;;;;3.42;1.73;;;28.10;47.10;;;;;;2527225;54;20941;-69
2023/07/10 02:09:36;;;;;;;3.37;1.65;;;28.10;47.10;;;;;;2292792;55;20900;-69
2023/07/10 02:12:32;;;;;;;3.62;1.77;;;28.10;47.10;;;;;;2525692;54;20924;-69
2023/07/10 02:14:59;;;;;;;3.85;2.00;;;28.10;47.60;;;;;;2520188;54;21323;-69
2023/07/10 02:17:27;;;;;;;3.60;1.80;;;28.10;47.20;;;;;;2292398;55;21055;-70
2023/07/10 02:20:11;;;;;;;3.60;1.90;;;28.10;47.20;;;;;;2286153;55;21012;-69
2023/07/10 02:22:38;;;;;;;3.95;1.70;;;28.10;47.60;;;;;;2527524;54;20940;-70
2023/07/10 02:25:04;;;;;;;3.72;1.73;;;28.10;47.30;;;;;;2291871;55;20908;-68
2023/07/10 02:27:31;;;;;;;3.30;1.52;;;28.10;47.40;;;;;;2527664;54;20940;-70
2023/07/10 02:30:41;;;;;;;3.40;1.73;;;28.10;47.50;;;;;;2292035;55;20933;-72
2023/07/10 02:33:07;;;;;;;3.20;1.50;;;28.20;47.80;;;;;;2292975;55;20996;-68
2023/07/10 02:35:34;;;;;;;3.72;1.77;;;28.20;47.50;;;;;;2292567;55;20999;-72
2023/07/10 02:38:00;;;;;;;3.45;1.60;;;28.20;47.60;;;;;;2520367;54;21110;-70
2023/07/10 02:40:26;;;;;;;3.45;1.80;;;28.20;47.60;;;;;;2272366;55;21099;-69
2023/07/10 02:42:53;;;;;;;3.45;1.75;;;28.20;47.60;;;;;;2280249;55;21430;-70
2023/07/10 02:45:33;;;;;;;3.55;1.62;;;28.30;47.80;;;;;;2520608;54;20936;-68
2023/07/10 02:48:03;;;;;;;4.75;1.90;;;28.30;48.20;;;;;;2291384;55;20924;-68
2023/07/10 02:50:29;;;;;;;4.57;1.95;;;28.30;47.80;;;;;;2527959;54;20933;-70
2023/07/10 02:52:55;;;;;;;3.80;1.95;;;28.30;47.90;;;;;;2292056;55;21839;-70
2023/07/10 02:55:21;;;;;;;3.40;1.90;;;28.30;48.00;;;;;;2292530;55;21044;-70
2023/07/10 02:57:48;;;;;;;3.28;1.65;;;28.30;48.00;;;;;;2526976;54;21893;-69
2023/07/10 03:00:15;;;;;;;4.53;1.90;;;28.30;48.00;;;;;;2292040;55;20977;-70
2023/07/10 03:02:42;;;;;;;3.72;1.62;;;28.30;48.00;;;;;;2272946;55;20985;-67
2023/07/10 03:05:08;;;;;;;4.53;1.77;;;28.40;48.10;;;;;;2520835;54;21342;-70
2023/07/10 03:07:45;;;;;;;4.53;1.90;;;28.30;48.10;;;;;;2527681;54;20896;-68
2023/07/10 03:10:11;;;;;;;4.05;2.22;;;28.40;48.60;;;;;;2292089;55;20940;-68
2023/07/10 03:12:37;;;;;;;4.80;2.10;;;28.40;49.00;;;;;;2527774;54;20932;-69
2023/07/10 03:15:05;;;;;;;3.28;1.70;;;28.40;48.50;;;;;;2294909;55;20960;-70
2023/07/10 03:17:31;;;;;;;4.05;1.90;;;28.40;48.60;;;;;;2271387;55;20984;-69
2023/07/10 03:19:58;;;;;;;3.97;2.12;;;28.40;48.60;;;;;;2526260;54;20936;-69
2023/07/10 03:22:24;;;;;;;4.05;1.98;;;28.40;48.60;;;;;;2528046;54;20916;-70
2023/07/10 03:24:54;;;;;;;5.65;2.37;;;28.40;48.90;;;;;;2280417;55;21047;-69
2023/07/10 03:27:21;;;;;;;4.82;2.55;;;28.40;49.20;;;;;;2286147;55;20975;-70
2023/07/10 03:29:47;;;;;;;4.30;2.28;;;28.40;49.00;;;;;;2292283;55;20932;-71
2023/07/10 03:32:13;;;;;;;5.45;2.30;;;28.40;49.10;;;;;;2272830;55;21779;-69
2023/07/10 03:34:41;;;;;;;3.67;1.87;;;28.40;49.10;;;;;;2287669;56;20970;-70
2023/07/10 03:37:08;;;;;;;3.30;1.80;;;28.40;49.10;;;;;;2291841;55;20916;-69
2023/07/10 03:39:35;;;;;;;4.40;2.20;;;28.40;49.10;;;;;;2277834;55;20990;-67
2023/07/10 03:42:02;;;;;;;3.42;2.00;;;28.40;49.20;;;;;;2515315;54;20992;-68
2023/07/10 03:44:30;;;;;;;3.78;1.98;;;28.40;49.20;;;;;;2293343;55;20893;-66
2023/07/10 03:46:57;;;;;;;3.20;1.55;;;28.40;49.30;;;;;;2292780;55;20932;-67
2023/07/10 03:49:25;;;;;;;4.10;2.10;;;28.40;49.20;;;;;;2292890;55;20988;-69
2023/07/10 03:51:51;;;;;;;3.45;1.90;;;28.50;49.30;;;;;;2292617;55;21812;-67
2023/07/10 03:54:18;;;;;;;3.12;1.60;;;28.40;49.20;;;;;;2293231;55;20952;-70
2023/07/10 03:56:45;;;;;;;4.12;1.65;;;28.50;49.30;;;;;;2292483;55;21059;-66
2023/07/10 03:59:12;;;;;;;4.43;2.08;;;28.40;49.30;;;;;;2287689;55;20971;-67
2023/07/10 04:01:39;;;;;;;3.70;1.90;;;28.50;49.50;;;;;;2218910;54;4207508;-68
2023/07/10 04:04:05;;;;;;;4.25;2.22;;;28.50;49.40;;;;;;2523205;54;20968;-66
2023/07/10 04:06:31;;;;;;;3.45;1.83;;;28.50;49.50;;;;;;2292594;55;20952;-66
2023/07/10 04:09:28;;;;;;;3.78;1.92;;;28.50;49.40;;;;;;2526902;54;21413;-67
2023/07/10 04:11:55;;;;;;;3.30;1.58;;;28.50;49.70;;;;;;2527025;54;20980;-68
2023/07/10 04:14:25;;;;;;;3.90;1.60;;;28.50;50.00;;;;;;2527311;54;21656;-67
2023/07/10 04:16:54;;;;;;;4.35;1.83;;;28.40;49.30;;;;;;2526648;54;20928;-69
2023/07/10 04:19:20;;;;;;;3.97;2.10;;;28.40;49.60;;;;;;2292364;55;20928;-67
2023/07/10 04:21:49;;;;;;;3.70;1.98;;;28.40;49.70;;;;;;2527438;54;20932;-67
2023/07/10 04:24:16;;;;;;;3.95;2.15;;;28.40;49.90;;;;;;2527556;54;21794;-66
2023/07/10 04:26:43;;;;;;;3.35;1.73;;;28.40;49.80;;;;;;2527793;54;20917;-67
2023/07/10 04:29:11;;;;;;;3.75;1.80;;;28.40;49.80;;;;;;2527553;54;20944;-66
2023/07/10 04:31:40;;;;;;;3.42;1.80;;;28.40;50.00;;;;;;2292387;55;20940;-66
2023/07/10 04:34:07;;;;;;;3.20;1.80;;;28.30;49.90;;;;;;2527580;54;22299;-67
2023/07/10 04:36:35;;;;;;;3.28;1.90;;;28.30;49.90;;;;;;2292877;55;20956;-66
2023/07/10 04:39:02;;;;;;;5.00;2.17;;;28.30;50.00;;;;;;2501448;54;20992;-67
2023/07/10 04:41:37;;;;;;;5.03;1.80;;;28.30;50.00;;;;;;2528577;54;20944;-68
2023/07/10 04:44:03;;;;;;;3.45;1.85;;;28.30;50.20;;;;;;2524345;54;20921;-71
2023/07/10 04:46:31;;;;;;;3.85;1.95;;;28.40;50.30;;;;;;2293625;55;21029;-69
2023/07/10 04:49:00;;;;;;;3.60;1.87;;;28.30;50.30;;;;;;2275751;55;20984;-68
2023/07/10 04:51:27;;;;;;;4.82;2.28;;;28.40;50.30;;;;;;2527124;54;20892;-68
2023/07/10 04:53:58;;;;;;;5.10;2.55;;;28.30;50.30;;;;;;2292396;55;20909;-68
2023/07/10 04:56:25;;;;;;;4.55;2.37;;;28.40;50.60;;;;;;2527031;54;21458;-68
2023/07/10 04:58:58;;;;;;;6.87;2.33;;;28.40;50.40;;;;;;2292837;55;20972;-71
2023/07/10 05:01:29;;;;;;;4.07;2.60;;;28.40;50.70;;;;;;2528066;54;20920;-68
2023/07/10 05:03:56;;;;;;;3.83;2.05;;;28.40;51.30;;;;;;2528270;54;20964;-69
2023/07/10 05:06:22;;;;;;;4.50;2.50;;;28.30;50.70;;;;;;2528123;54;20944;-68
2023/07/10 05:08:55;;;;;;;4.18;2.47;;;28.30;50.80;;;;;;2292694;55;20904;-68
2023/07/10 05:11:24;;;;;;;4.07;2.00;;;28.30;50.90;;;;;;2527633;54;21469;-67
2023/07/10 05:13:50;;;;;;;3.83;2.00;;;28.40;50.90;;;;;;2504910;54;20929;-67
2023/07/10 05:16:17;;;;;;;4.32;2.10;;;28.30;50.80;;;;;;2525012;54;20916;-69
2023/07/10 05:18:43;;;;;;;4.50;1.92;;;28.30;50.90;;;;;;2293996;55;20982;-66
2023/07/10 05:21:09;;;;;;;3.37;1.90;;;28.40;50.90;;;;;;2292394;55;20952;-68
2023/07/10 05:23:36;;;;;;;4.87;2.10;;;28.40;50.90;;;;;;2528235;54;20937;-68
2023/07/10 05:26:10;;;;;;;4.12;2.15;;;28.40;50.90;;;;;;2292631;55;20932;-68
2023/07/10 05:28:36;;;;;;;3.58;1.87;;;28.40;51.20;;;;;;2292944;55;21768;-70
2023/07/10 05:31:04;;;;;;;7.35;2.20;;;28.40;51.00;;;;;;2527659;54;20928;-68
2023/07/10 05:33:30;;;;;;;5.40;2.25;;;28.40;51.00;;;;;;2274808;55;20932;-68
2023/07/10 05:35:59;;;;;;;3.60;1.98;;;28.40;51.10;;;;;;2527104;54;20995;-67
2023/07/10 05:38:27;;;;;;;5.35;3.10;;;28.50;51.20;;;;;;2282164;55;20957;-69
2023/07/10 05:40:53;;;;;;;5.82;3.62;;;28.50;51.40;;;;;;2269270;55;20958;-69
2023/07/10 05:43:20;;;;;;;5.10;3.05;;;28.50;51.40;;;;;;2525430;54;20984;-69
2023/07/10 05:45:47;;;;;;;5.55;3.00;;;28.50;51.50;;;;;;2528035;54;21796;-71
2023/07/10 05:48:13;;;;;;;4.20;2.42;;;28.60;51.70;;;;;;2292551;55;21378;-69
2023/07/10 05:50:45;;;;;;;3.92;2.30;;;28.60;51.60;;;;;;2513952;54;21109;-68
2023/07/10 05:53:12;;;;;;;4.05;2.42;;;28.60;51.70;;;;;;2282994;55;21016;-70
2023/07/10 05:55:46;;;;;;;4.70;2.70;;;28.60;51.70;;;;;;2528722;54;21687;-68
2023/07/10 05:58:13;;;;;;;4.12;2.40;;;28.60;52.00;;;;;;2528042;54;20940;-68
2023/07/10 06:00:40;;;;;;;4.80;2.72;;;28.70;51.90;;;;;;2296489;55;20885;-67
2023/07/10 06:03:07;;;;;;;5.78;2.50;;;28.70;52.00;;;;;;2271898;55;20996;-67
2023/07/10 06:05:33;;;;;;;7.10;3.05;;;28.70;51.80;;;;;;2293442;56;20967;-68
2023/07/10 06:08:00;;;;;;;5.20;3.12;;;28.70;51.90;;;;;;2528376;54;20908;-68
2023/07/10 06:10:26;;;;;;;5.53;2.85;;;28.70;52.00;;;;;;2528441;54;20943;-71
2023/07/10 06:12:53;;;;;;;6.75;3.17;;;28.70;52.10;;;;;;2528187;54;20953;-68
2023/07/10 06:15:21;;;;;;;4.93;2.83;;;28.70;52.20;;;;;;2292818;55;20929;-67
2023/07/10 06:17:48;;;;;;;4.87;2.87;;;28.70;52.30;;;;;;2292431;55;21437;-68
2023/07/10 06:20:14;;;;;;;4.85;3.05;;;28.60;52.20;;;;;;2283852;55;21574;-67
2023/07/10 06:22:41;;;;;;;4.60;2.80;;;28.60;52.30;;;;;;2283203;55;21000;-68
2023/07/10 06:25:10;;;;;;;5.00;2.60;;;28.60;52.20;;;;;;2515166;54;20957;-67
2023/07/10 06:27:37;;;;;;;7.35;2.80;;;28.60;52.50;;;;;;2515284;54;20889;-67
2023/07/10 06:30:04;;;;;;;4.40;2.45;;;28.60;52.40;;;;;;2292655;55;20984;-67
2023/07/10 06:32:31;;;;;;;5.07;2.65;;;28.60;52.40;;;;;;2528510;54;21516;-67
2023/07/10 06:34:58;;;;;;;4.60;2.95;;;28.60;52.40;;;;;;2286740;55;20883;-65
2023/07/10 06:37:24;;;;;;;5.05;2.55;;;28.60;52.40;;;;;;2505648;54;20992;-67
2023/07/10 06:43:23;;;;;;;4.95;2.60;;;28.70;52.50;;;;;;2527421;54;20929;-67
2023/07/10 06:45:49;;;;;;;6.78;2.30;;;28.70;52.40;;;;;;2528308;54;21076;-70
2023/07/10 06:48:15;;;;;;;5.53;2.92;;;28.70;52.30;;;;;;2527888;54;21474;-67
2023/07/10 06:50:46;;;;;;;5.40;2.85;;;28.60;52.40;;;;;;2292828;55;20932;-68
2023/07/10 06:53:13;;;;;;;5.25;3.08;;;28.60;52.70;;;;;;2527267;54;20953;-70
2023/07/10 06:55:50;;;;;;;4.20;2.80;;;28.60;52.70;;;;;;2292989;55;20988;-68
2023/07/10 06:58:17;;;;;;;5.40;3.17;;;28.60;52.70;;;;;;2501460;54;20941;-67
2023/07/10 07:00:45;;;;;;;4.40;2.70;;;28.60;52.70;;;;;;2526662;54;20952;-66
2023/07/10 07:03:11;;;;;;;4.95;2.83;;;28.70;52.90;;;;;;2292597;55;20988;-70
2023/07/10 07:05:41;;;;;;;5.40;3.05;;;28.70;53.10;;;;;;2284043;55;20987;-68
2023/07/10 07:08:08;;;;;;;5.18;2.75;;;28.70;53.00;;;;;;2517517;54;20924;-67
2023/07/10 07:10:44;;;;;;;5.43;3.00;;;28.70;52.90;;;;;;2527572;54;21024;-68
2023/07/10 07:13:11;;;;;;;5.22;2.90;;;28.70;53.30;;;;;;2293669;56;21879;-67
2023/07/10 07:15:37;;;;;;;5.70;3.08;;;28.80;53.30;;;;;;2294739;55;21894;-69
2023/07/10 07:18:05;;;;;;;5.75;3.00;;;28.80;53.30;;;;;;2292668;56;20924;-68
2023/07/10 07:20:34;;;;;;;5.15;2.97;;;28.80;53.30;;;;;;2293235;55;20992;-68
2023/07/10 07:23:00;;;;;;;4.82;2.80;;;28.80;53.40;;;;;;2527544;54;20996;-69
2023/07/10 07:25:30;;;;;;;4.82;2.83;;;28.90;53.30;;;;;;2528188;54;21437;-67
2023/07/10 07:28:03;;;;;;;5.18;2.62;;;28.90;53.40;;;;;;2294328;55;20936;-70
2023/07/10 07:30:29;;;;;;;3.90;2.20;;;29.00;53.40;;;;;;2509059;54;21025;-68
2023/07/10 07:32:59;;;;;;;5.35;2.78;;;29.00;53.30;;;;;;2283504;55;20932;-71
2023/07/10 07:35:25;;;;;;;6.37;3.10;;;29.10;53.30;;;;;;2292933;55;20989;-67
2023/07/10 07:37:52;;;;;;;4.22;2.67;;;29.10;53.40;;;;;;2528739;54;21476;-68
2023/07/10 07:40:22;;;;;;;5.28;3.42;;;29.20;53.50;;;;;;2293040;55;21433;-67
2023/07/10 07:42:48;;;;;;;5.78;2.83;;;29.20;53.40;;;;;;2289157;55;21003;-69
2023/07/10 07:45:17;;;;;;;5.40;2.90;;;29.30;53.50;;;;;;2505534;54;21241;-67
2023/07/10 07:47:43;;;;;;;5.20;2.78;;;29.30;53.40;;;;;;2527994;54;20920;-68
2023/07/10 07:50:10;;;;;;;7.47;2.40;;;29.40;53.30;;;;;;2292640;55;21444;-68
2023/07/10 07:52:36;;;;;;;5.18;2.72;;;29.40;53.30;;;;;;2500762;54;21041;-68
2023/07/10 07:55:03;;;;;;;4.55;2.75;;;29.50;53.30;;;;;;2280736;55;20942;-68
2023/07/10 07:57:30;;;;;;;5.10;2.80;;;29.50;53.10;;;;;;2288711;55;21468;-68
2023/07/10 07:59:59;;;;;;;4.40;2.85;;;29.60;53.10;;;;;;2292818;55;20913;-67
2023/07/10 08:02:27;;;;;;;4.65;2.45;;;29.60;53.10;;;;;;2274853;55;21018;-68
2023/07/10 08:04:53;;;;;;;4.75;3.05;;;29.70;53.00;;;;;;2293167;55;20983;-67
2023/07/10 08:07:19;;;;;;;4.87;2.60;;;29.80;53.00;;;;;;2527318;54;20901;-68
2023/07/10 08:09:46;;;;;;;4.15;2.87;;;29.80;53.00;;;;;;2273741;55;20952;-68
2023/07/10 08:12:12;;;;;;;5.65;2.78;;;29.90;53.00;;;;;;2292658;55;20940;-72
2023/07/10 08:14:39;;;;;;;5.07;2.58;;;29.90;52.90;;;;;;2293202;55;21465;-68
2023/07/10 08:17:08;;;;;;;4.43;2.75;;;30.00;52.80;;;;;;2292810;55;20924;-70
2023/07/10 08:19:34;;;;;;;4.30;2.83;;;30.00;52.80;;;;;;2507193;54;21069;-71
2023/07/10 08:22:05;;;;;;;5.28;3.40;;;30.10;52.80;;;;;;2509936;54;20924;-67
2023/07/10 08:24:31;;;;;;;5.50;3.28;;;30.10;52.70;;;;;;2528213;54;20917;-68
2023/07/10 08:26:58;;;;;;;4.82;3.05;;;30.20;52.70;;;;;;2528060;54;20900;-69
2023/07/10 08:29:29;;;;;;;5.70;3.10;;;30.20;52.60;;;;;;2292290;55;20952;-67
2023/07/10 08:31:56;;;;;;;6.10;3.37;;;30.20;52.50;;;;;;2292994;55;20980;-67
2023/07/10 08:34:27;;;;;;;5.55;2.97;;;30.30;52.40;;;;;;2292984;56;21928;-68
2023/07/10 08:36:54;;;;;;;5.25;2.85;;;30.30;52.50;;;;;;2516156;54;21530;-68
2023/07/10 08:39:24;;;;;;;4.37;2.70;;;30.30;52.40;;;;;;2280429;55;20924;-67
2023/07/10 08:42:00;;;;;;;4.68;2.78;;;30.40;52.50;;;;;;2528450;54;20928;-70
2023/07/10 08:44:30;;;;;;;5.35;2.85;;;30.40;52.40;;;;;;2529072;54;20960;-68
2023/07/10 08:47:00;;;;;;;6.07;2.75;;;30.50;52.40;;;;;;2528231;54;21020;-67
2023/07/10 08:49:34;;;;;;;7.60;3.15;;;30.60;52.50;;;;;;2293252;55;21485;-67
2023/07/10 08:52:11;;;;;;;6.57;3.50;;;30.70;52.60;;;;;;2528291;54;20921;-69
2023/07/10 08:54:38;;;;;;;5.65;2.90;;;30.70;52.60;;;;;;2292801;55;21504;-69
2023/07/10 08:57:34;;;;;;;7.60;3.00;;;30.80;52.50;;;;;;2292774;55;20969;-68
2023/07/10 09:00:10;;;;;;;4.30;2.53;;;30.80;52.50;;;;;;2274138;55;21747;-67
2023/07/10 09:02:51;;;;;;;4.85;2.40;;;30.90;52.40;;;;;;2528598;54;20988;-67
2023/07/10 09:05:27;;;;;;;4.00;2.62;;;30.90;52.30;;;;;;2292793;55;22469;-67
2023/07/10 09:07:53;;;;;;;4.93;2.85;;;31.00;52.20;;;;;;2293013;55;21035;-69
2023/07/10 09:10:26;;;;;;;4.07;2.62;;;31.00;52.10;;;;;;2292234;56;20900;-68
2023/07/10 09:12:56;;;;;;;4.60;3.05;;;31.10;52.10;;;;;;2292867;55;20928;-68
2023/07/10 09:15:50;;;;;;;3.35;2.12;;;31.10;52.00;;;;;;2292679;55;21686;-71
2023/07/10 09:18:44;;;;;;;6.05;2.85;;;31.20;51.80;;;;;;2292497;55;20944;-68
2023/07/10 09:21:22;;;;;;;4.97;3.28;;;31.30;51.90;;;;;;2292434;55;20921;-68
2023/07/10 09:23:49;;;;;;;4.50;2.70;;;31.30;51.50;;;;;;2292884;55;21401;-72
2023/07/10 09:26:18;;;;;;;4.57;2.78;;;31.40;51.30;;;;;;2527581;54;20956;-71
2023/07/10 09:29:08;;;;;;;4.40;2.60;;;31.40;51.00;;;;;;2292908;55;20924;-69
2023/07/10 09:32:03;;;;;;;4.57;2.30;;;31.50;50.90;;;;;;2293375;55;21467;-68
2023/07/10 09:34:32;;;;;;;3.80;2.42;;;31.50;50.90;;;;;;2296198;55;20924;-72
2023/07/10 09:36:58;;;;;;;4.37;2.15;;;31.50;50.80;;;;;;2282746;55;20974;-68
2023/07/10 09:39:31;;;;;;;3.45;2.45;;;31.60;50.80;;;;;;2514755;54;20940;-68
2023/07/10 09:42:00;;;;;;;3.92;2.50;;;31.60;50.90;;;;;;2528082;54;21869;-70
2023/07/10 09:44:36;;;;;;;4.45;2.60;;;31.60;50.90;;;;;;2292934;55;20920;-69
2023/07/10 09:47:08;;;;;;;5.50;2.70;;;31.70;50.80;;;;;;2528295;54;20933;-68
2023/07/10 09:49:36;;;;;;;3.37;2.10;;;31.70;50.60;;;;;;2293188;55;21075;-69
2023/07/10 09:52:10;;;;;;;3.65;2.25;;;31.70;50.40;;;;;;2528767;54;20905;-67
2023/07/10 09:54:37;;;;;;;5.75;2.35;;;31.70;50.40;;;;;;2292851;55;20924;-68
2023/07/10 09:57:14;;;;;;;6.12;2.60;;;31.80;50.50;;;;;;2293002;55;20904;-67
2023/07/10 09:59:53;;;;;;;3.95;2.33;;;31.90;50.60;;;;;;2292931;55;20936;-69
2023/07/10 10:02:24;;;;;;;4.50;2.22;;;31.90;50.60;;;;;;2292172;55;21019;-68
2023/07/10 10:05:00;;;;;;;6.15;2.30;;;32.00;50.60;;;;;;2274928;55;20901;-68
2023/07/10 10:07:34;;;;;;;3.85;2.08;;;32.00;50.30;;;;;;2527265;54;20968;-68
2023/07/10 10:16:50;;;;;;;4.40;2.37;;;32.10;50.20;;;;;;2295681;55;20960;-68
2023/07/10 10:19:25;;;;;;;3.55;1.73;;;32.10;50.10;;;;;;2527855;54;21004;-68
2023/07/10 10:21:52;;;;;;;3.75;1.90;;;32.40;49.80;;;;;;2292962;55;20910;-70
2023/07/10 10:24:18;;;;;;;4.57;2.12;;;32.30;49.70;;;;;;2292642;55;20912;-70
2023/07/10 10:27:04;;;;;;;3.90;2.22;;;32.40;49.70;;;;;;2292890;55;20928;-70
2023/07/10 10:31:41;;;;;;;4.30;2.35;;;32.40;49.30;;;;;;2292840;55;21020;-68
2023/07/10 10:35:30;;;;;;;4.35;1.98;;;32.50;49.00;;;;;;2527895;54;20944;-68
2023/07/10 10:45:04;;;;;;;3.47;1.85;;;32.60;48.80;;;;;;2293183;55;21870;-69
2023/07/10 10:48:30;;;;;;;2.67;1.23;;;32.60;48.60;;;;;;2292157;55;21405;-73
2023/07/10 10:51:43;;;;;;;2.97;1.60;;;32.80;48.20;;;;;;2528336;54;20972;-68
2023/07/10 10:57:49;;;;;;;3.62;2.20;;;32.80;48.30;;;;;;2289872;55;21060;-67
2023/07/10 11:00:58;;;;;;;3.03;1.67;;;32.90;47.90;;;;;;2527681;54;20936;-68
2023/07/10 11:03:37;;;;;;;4.03;1.85;;;33.00;47.30;;;;;;2292624;55;21012;-70
2023/07/10 11:07:37;;;;;;;3.10;2.03;;;32.90;47.20;;;;;;2292674;56;20984;-68
2023/07/10 11:10:06;;;;;;;3.25;1.75;;;33.00;47.00;;;;;;2293238;56;21782;-73
2023/07/10 11:12:33;;;;;;;3.50;1.80;;;33.00;47.10;;;;;;2528455;54;20909;-68
2023/07/10 11:15:11;;;;;;;2.83;1.70;;;33.10;46.90;;;;;;2528520;54;20909;-68
2023/07/10 11:17:38;;;;;;;3.87;1.85;;;33.10;46.50;;;;;;2521483;54;21037;-68
2023/07/10 11:20:06;;;;;;;4.07;1.90;;;33.10;46.40;;;;;;2277694;55;20991;-68
2023/07/10 11:22:34;;;;;;;4.28;2.10;;;33.10;46.10;;;;;;2293280;55;20956;-70
2023/07/10 11:25:02;;;;;;;4.00;2.08;;;33.20;45.90;;;;;;2293178;55;20988;-68
2023/07/10 11:27:36;;;;;;;3.50;2.20;;;33.20;45.40;;;;;;2274997;55;21008;-69
2023/07/10 11:30:13;;;;;;;4.10;2.17;;;33.20;44.90;;;;;;2292422;55;20941;-67
2023/07/10 11:33:02;;;;;;;3.62;1.87;;;33.30;44.50;;;;;;2292895;56;20929;-71
2023/07/10 11:35:30;;;;;;;3.20;1.87;;;33.40;44.70;;;;;;2293141;55;20964;-68
2023/07/10 11:38:17;;;;;;;2.92;1.85;;;33.30;45.20;;;;;;2528319;54;20965;-68
2023/07/10 11:40:44;;;;;;;3.15;1.92;;;33.40;44.30;;;;;;2292412;56;20952;-69
2023/07/10 11:48:34;;;;;;;3.25;1.67;;;33.50;44.90;;;;;;2528194;54;21056;-67
2023/07/10 11:51:01;;;;;;;3.03;1.80;;;33.60;44.60;;;;;;2273388;56;21652;-68
2023/07/10 11:53:30;;;;;;;3.58;1.80;;;33.70;44.30;;;;;;2527489;54;20985;-68
2023/07/10 11:56:06;;;;;;;3.15;2.05;;;33.70;44.60;;;;;;2527712;54;20917;-67
2023/07/10 11:58:33;;;;;;;3.62;2.30;;;33.80;43.90;;;;;;2527125;54;21413;-69
2023/07/10 12:01:15;;;;;;;3.70;2.40;;;33.80;44.00;;;;;;2528150;54;20904;-71
2023/07/10 12:03:42;;;;;;;6.25;2.45;;;33.80;43.50;;;;;;2293505;55;20984;-68
2023/07/10 12:06:19;;;;;;;5.28;2.10;;;33.90;43.70;;;;;;2292486;55;21019;-68
2023/07/10 12:08:46;;;;;;;4.05;1.85;;;33.90;43.20;;;;;;2286962;55;20950;-68
2023/07/10 12:11:59;;;;;;;4.18;2.12;;;34.00;43.50;;;;;;2503889;54;20947;-68
2023/07/10 12:14:30;;;;;;;4.10;2.28;;;34.00;43.30;;;;;;2527154;54;20939;-69
2023/07/10 12:16:59;;;;;;;3.75;2.03;;;34.10;43.40;;;;;;2292369;55;21386;-68
2023/07/10 12:19:44;;;;;;;4.40;2.20;;;34.10;43.20;;;;;;2527137;54;20909;-72
2023/07/10 12:22:24;;;;;;;3.10;1.80;;;34.10;43.10;;;;;;2528192;54;20932;-67
2023/07/10 12:24:55;;;;;;;3.47;2.12;;;34.20;42.90;;;;;;2292961;55;21460;-68
2023/07/10 12:27:23;;;;;;;3.25;2.10;;;34.30;43.20;;;;;;2292747;56;21003;-71
2023/07/10 12:29:55;;;;;;;3.47;1.87;;;34.30;43.20;;;;;;2528422;54;21024;-68
2023/07/10 12:32:22;;;;;;;5.12;2.20;;;34.30;42.90;;;;;;2288392;55;20994;-67
2023/07/10 12:34:49;;;;;;;3.50;2.03;;;34.30;42.70;;;;;;2511321;54;20937;-68
2023/07/10 12:37:16;;;;;;;3.20;1.75;;;34.40;43.00;;;;;;2294570;56;20924;-68
2023/07/10 12:39:50;;;;;;;4.05;2.05;;;34.40;42.80;;;;;;2270284;55;21042;-68
2023/07/10 12:42:40;;;;;;;3.15;1.80;;;34.40;42.40;;;;;;2517113;54;21284;-68
2023/07/10 12:45:19;;;;;;;4.28;2.30;;;34.50;42.70;;;;;;2527516;54;20908;-67
2023/07/10 12:47:53;;;;;;;3.50;2.15;;;34.60;42.80;;;;;;2293146;55;21004;-68
2023/07/10 12:50:35;;;;;;;4.65;2.28;;;34.60;42.60;;;;;;2292498;55;21000;-68
2023/07/10 12:53:06;;;;;;;4.43;2.35;;;34.60;42.70;;;;;;2280787;55;20990;-68
2023/07/10 12:55:36;;;;;;;4.43;1.90;;;34.60;42.70;;;;;;2521152;54;20960;-68
2023/07/10 12:58:03;;;;;;;3.30;2.10;;;34.60;42.40;;;;;;2528312;54;21267;-68
2023/07/10 13:00:54;;;;;;;3.92;2.10;;;34.60;42.20;;;;;;2292303;55;20952;-70
2023/07/10 13:03:26;;;;;;;3.25;2.17;;;34.70;41.70;;;;;;2292558;55;21004;-68
2023/07/10 13:05:54;;;;;;;4.03;2.53;;;34.70;41.80;;;;;;2292586;55;21872;-67
2023/07/10 13:08:20;;;;;;;4.00;2.10;;;34.70;42.00;;;;;;2283021;55;21057;-69
2023/07/10 13:10:49;;;;;;;4.68;2.37;;;34.70;42.10;;;;;;2517270;54;20940;-68
2023/07/10 13:13:17;;;;;;;3.33;1.83;;;34.80;42.00;;;;;;2528183;54;20949;-67
2023/07/10 13:15:43;;;;;;;3.20;1.80;;;34.80;42.10;;;;;;2293018;55;20992;-70
2023/07/10 13:18:52;;;;;;;4.05;2.25;;;34.90;42.40;;;;;;2528834;54;20904;-67
2023/07/10 13:21:20;;;;;;;4.15;2.10;;;34.90;41.80;;;;;;2528066;54;20936;-68
2023/07/10 13:23:50;;;;;;;3.70;2.10;;;35.00;42.00;;;;;;2528080;54;20949;-67
2023/07/10 13:26:19;;;;;;;3.95;2.37;;;35.00;41.70;;;;;;2527853;54;20965;-67
2023/07/10 13:28:47;;;;;;;3.42;1.85;;;35.10;42.10;;;;;;2292821;56;20956;-68
2023/07/10 13:31:32;;;;;;;6.57;2.20;;;35.10;41.90;;;;;;2291765;55;20976;-68
2023/07/10 13:33:59;;;;;;;3.65;2.30;;;35.10;41.70;;;;;;2292938;55;20900;-66
2023/07/10 13:36:26;;;;;;;3.37;2.17;;;35.20;41.40;;;;;;2527947;54;20948;-71
2023/07/10 13:38:52;;;;;;;3.53;2.17;;;35.30;41.20;;;;;;2292890;55;20944;-67